createdAt,value
2023-02-14T00:00:56.869Z,5.22
2023-02-14T00:02:01.493Z,4.65
2023-02-14T00:03:16.944Z,4.60
2023-02-14T00:04:22.179Z,4.93
2023-02-14T00:05:26.307Z,4.13
2023-02-14T00:06:35.988Z,4.80
2023-02-14T00:07:39.888Z,4.47
2023-02-14T00:08:45.318Z,4.20
2023-02-14T00:09:49.634Z,3.90
2023-02-14T00:10:53.528Z,5.00
2023-02-14T00:11:58.085Z,3.88
2023-02-14T00:13:01.996Z,4.43
2023-02-14T00:14:29.882Z,5.22
2023-02-14T00:15:33.853Z,4.93
2023-02-14T00:16:38.561Z,4.93
2023-02-14T00:17:42.572Z,5.47
2023-02-14T00:19:04.178Z,4.72
2023-02-14T00:20:12.113Z,4.40
2023-02-14T00:21:15.899Z,4.40
2023-02-14T00:22:20.366Z,3.33
2023-02-14T00:23:24.140Z,4.72
2023-02-14T00:24:28.196Z,4.65
2023-02-14T00:25:34.792Z,5.72
2023-02-14T00:26:39.087Z,5.57
2023-02-14T00:27:43.038Z,4.72
2023-02-14T00:28:46.635Z,4.07
2023-02-14T00:29:50.921Z,5.68
2023-02-14T00:30:58.598Z,5.32
2023-02-14T00:32:03.520Z,4.53
2023-02-14T00:33:14.732Z,4.20
2023-02-14T00:34:19.976Z,4.47
2023-02-14T00:35:24.200Z,4.93
2023-02-14T00:36:28.266Z,3.60
2023-02-14T00:37:32.211Z,4.45
2023-02-14T00:38:36.828Z,4.25
2023-02-14T00:39:40.724Z,4.13
2023-02-14T00:40:44.628Z,4.07
2023-02-14T00:41:48.661Z,6.10
2023-02-14T00:42:52.621Z,5.40
2023-02-14T00:43:56.455Z,4.57
2023-02-14T00:45:00.718Z,4.53
2023-02-14T00:46:05.359Z,5.47
2023-02-14T00:47:09.545Z,4.35
2023-02-14T00:48:14.258Z,3.72
2023-02-14T00:49:18.283Z,4.90
2023-02-14T00:50:21.926Z,4.18
2023-02-14T00:51:28.827Z,4.47
2023-02-14T00:52:33.158Z,4.68
2023-02-14T00:53:37.796Z,5.05
2023-02-14T00:54:41.461Z,4.70
2023-02-14T00:55:47.451Z,3.97
2023-02-14T00:56:51.563Z,4.75
2023-02-14T00:57:55.283Z,4.50
2023-02-14T00:58:58.987Z,4.47
2023-02-14T01:00:03.561Z,5.00
2023-02-14T01:01:15.726Z,3.90
2023-02-14T01:02:19.668Z,3.22
2023-02-14T01:03:24.253Z,4.35
2023-02-14T01:04:28.216Z,4.35
2023-02-14T01:05:32.054Z,4.32
2023-02-14T01:06:35.922Z,3.97
2023-02-14T01:07:40.162Z,3.22
2023-02-14T01:08:44.699Z,4.00
2023-02-14T01:09:48.915Z,4.53
2023-02-14T01:10:53.401Z,3.88
2023-02-14T01:11:57.749Z,4.25
2023-02-14T01:13:01.889Z,5.10
2023-02-14T01:14:10.882Z,3.70
2023-02-14T01:15:15.512Z,4.38
2023-02-14T01:16:23.363Z,3.75
2023-02-14T01:17:28.117Z,4.65
2023-02-14T01:18:32.794Z,4.25
2023-02-14T01:19:36.836Z,4.63
2023-02-14T01:20:41.552Z,4.78
2023-02-14T01:21:46.505Z,5.85
2023-02-14T01:22:52.036Z,5.05
2023-02-14T01:23:59.691Z,4.43
2023-02-14T01:25:12.360Z,4.97
2023-02-14T01:26:17.456Z,5.90
2023-02-14T01:27:21.642Z,5.15
2023-02-14T01:28:25.620Z,5.70
2023-02-14T01:29:29.511Z,4.97
2023-02-14T01:30:33.812Z,5.82
2023-02-14T01:31:38.428Z,5.30
2023-02-14T01:32:42.540Z,5.25
2023-02-14T01:33:49.344Z,4.85
2023-02-14T01:34:53.465Z,4.63
2023-02-14T01:35:58.539Z,5.13
2023-02-14T01:37:02.377Z,4.90
2023-02-14T01:38:09.421Z,4.95
2023-02-14T01:39:15.459Z,6.55
2023-02-14T01:40:19.537Z,3.80
2023-02-14T01:41:25.338Z,4.60
2023-02-14T01:42:29.698Z,4.85
2023-02-14T01:44:03.093Z,4.35
2023-02-14T01:45:20.260Z,5.22
2023-02-14T01:46:38.031Z,4.03
2023-02-14T01:47:46.912Z,4.13
2023-02-14T01:48:55.733Z,6.03
2023-02-14T01:50:17.874Z,7.10
2023-02-14T01:51:22.741Z,5.38
2023-02-14T01:52:37.722Z,5.13
2023-02-14T01:53:41.873Z,6.30
2023-02-14T01:55:10.277Z,4.65
2023-02-14T01:56:24.364Z,5.15
2023-02-14T01:57:41.151Z,5.05
2023-02-14T01:58:51.256Z,4.13
2023-02-14T02:00:19.831Z,4.53
2023-02-14T02:01:24.748Z,4.65
2023-02-14T02:02:28.445Z,4.82
2023-02-14T02:03:46.085Z,4.43
2023-02-14T02:04:56.140Z,5.75
2023-02-14T02:06:35.952Z,4.82
2023-02-14T02:07:40.978Z,4.50
2023-02-14T02:09:25.645Z,4.95
2023-02-14T02:10:30.282Z,4.13
2023-02-14T02:11:38.093Z,4.85
2023-02-14T02:12:54.346Z,5.10
2023-02-14T02:14:00.993Z,4.40
2023-02-14T02:15:17.140Z,4.03
2023-02-14T02:16:52.696Z,5.03
2023-02-14T02:18:18.220Z,4.50
2023-02-14T02:19:36.520Z,5.07
2023-02-14T02:20:43.232Z,5.10
2023-02-14T02:22:24.348Z,4.22
2023-02-14T02:23:39.616Z,4.15
2023-02-14T02:25:16.008Z,4.68
2023-02-14T02:27:06.046Z,4.30
2023-02-14T02:28:44.721Z,6.28
2023-02-14T02:30:45.657Z,4.82
2023-02-14T02:32:52.929Z,4.55
2023-02-14T02:34:47.327Z,3.53
2023-02-14T02:36:06.263Z,4.90
2023-02-14T02:37:51.793Z,4.28
2023-02-14T02:39:25.646Z,4.97
2023-02-14T02:40:54.940Z,4.35
2023-02-14T02:42:25.271Z,4.20
2023-02-14T02:43:48.028Z,4.40
2023-02-14T02:45:34.634Z,4.63
2023-02-14T02:46:49.999Z,4.78
2023-02-14T02:48:09.170Z,5.93
2023-02-14T02:50:14.897Z,5.10
2023-02-14T02:52:02.013Z,5.38
2023-02-14T02:53:19.958Z,3.95
2023-02-14T02:54:52.810Z,4.05
2023-02-14T02:56:34.376Z,3.75
2023-02-14T02:57:43.400Z,4.85
2023-02-14T02:59:02.933Z,4.00
2023-02-14T03:00:22.408Z,3.90
2023-02-14T03:01:41.553Z,4.63
2023-02-14T03:03:12.010Z,5.50
2023-02-14T03:04:56.255Z,4.47
2023-02-14T03:06:00.869Z,3.35
2023-02-14T03:07:25.806Z,5.75
2023-02-14T03:08:29.588Z,5.95
2023-02-14T03:09:33.711Z,5.47
2023-02-14T03:10:39.693Z,4.82
2023-02-14T03:12:03.095Z,5.03
2023-02-14T03:13:59.771Z,4.97
2023-02-14T03:15:18.627Z,4.07
2023-02-14T03:16:54.618Z,4.63
2023-02-14T03:18:40.793Z,4.70
2023-02-14T03:20:28.483Z,3.95
2023-02-14T03:21:56.836Z,4.82
2023-02-14T03:23:32.788Z,4.95
2023-02-14T03:24:45.040Z,5.95
2023-02-14T03:26:01.248Z,5.03
2023-02-14T03:27:10.962Z,5.95
2023-02-14T03:28:31.289Z,4.07
2023-02-14T03:30:11.506Z,4.20
2023-02-14T03:31:52.717Z,3.63
2023-02-14T03:33:15.081Z,5.57
2023-02-14T03:34:50.288Z,5.43
2023-02-14T03:36:12.959Z,5.28
2023-02-14T03:38:20.393Z,4.55
2023-02-14T03:39:53.638Z,5.20
2023-02-14T03:41:12.990Z,4.65
2023-02-14T03:42:41.874Z,4.53
2023-02-14T03:43:55.140Z,5.00
2023-02-14T03:45:01.409Z,4.40
2023-02-14T03:46:21.355Z,4.75
2023-02-14T03:47:33.397Z,6.10
2023-02-14T03:48:40.833Z,4.97
2023-02-14T03:50:11.422Z,5.13
2023-02-14T03:51:18.900Z,7.15
2023-02-14T03:52:27.226Z,4.32
2023-02-14T03:53:37.237Z,4.88
2023-02-14T03:54:43.368Z,4.80
2023-02-14T03:56:15.109Z,4.53
2023-02-14T03:57:24.217Z,6.43
2023-02-14T03:58:37.815Z,4.22
2023-02-14T03:59:42.644Z,4.78
2023-02-14T04:00:51.706Z,4.85
2023-02-14T04:02:36.888Z,5.25
2023-02-14T04:03:43.712Z,6.00
2023-02-14T04:04:52.799Z,7.05
2023-02-14T04:05:56.971Z,6.00
2023-02-14T04:07:10.245Z,4.65
2023-02-14T04:08:23.914Z,5.45
2023-02-14T04:09:28.042Z,5.97
2023-02-14T04:10:32.795Z,6.28
2023-02-14T04:11:38.895Z,5.75
2023-02-14T04:12:43.244Z,4.85
2023-02-14T04:13:47.546Z,4.97
2023-02-14T04:14:51.674Z,4.22
2023-02-14T04:15:55.744Z,5.15
2023-02-14T04:17:18.415Z,4.95
2023-02-14T04:18:41.071Z,5.80
2023-02-14T04:19:44.972Z,5.10
2023-02-14T04:20:48.771Z,7.22
2023-02-14T04:21:53.323Z,5.38
2023-02-14T04:22:57.981Z,5.38
2023-02-14T04:24:01.944Z,5.13
2023-02-14T04:25:11.158Z,4.60
2023-02-14T04:26:15.418Z,5.75
2023-02-14T04:27:19.639Z,5.03
2023-02-14T04:28:23.396Z,5.80
2023-02-14T04:29:27.552Z,4.70
2023-02-14T04:30:31.439Z,5.93
2023-02-14T04:31:35.220Z,5.68
2023-02-14T04:32:40.259Z,5.65
2023-02-14T04:33:46.212Z,5.95
2023-02-14T04:34:50.414Z,5.78
2023-02-14T04:35:54.320Z,5.40
2023-02-14T04:36:58.283Z,5.38
2023-02-14T04:38:03.616Z,5.93
2023-02-14T04:39:10.902Z,5.72
2023-02-14T04:40:17.702Z,5.03
2023-02-14T04:41:21.373Z,5.00
2023-02-14T04:42:25.486Z,5.20
2023-02-14T04:43:29.526Z,5.13
2023-02-14T04:44:34.311Z,5.50
2023-02-14T04:45:40.937Z,4.78
2023-02-14T04:46:45.222Z,5.68
2023-02-14T04:47:52.452Z,5.13
2023-02-14T04:48:56.212Z,7.95
2023-02-14T04:49:59.997Z,5.28
2023-02-14T04:51:05.873Z,4.40
2023-02-14T04:52:13.383Z,4.53
2023-02-14T04:53:19.442Z,4.45
2023-02-14T04:54:23.498Z,3.85
2023-02-14T04:55:27.464Z,5.18
2023-02-14T04:56:31.162Z,4.70
2023-02-14T04:57:35.716Z,6.10
2023-02-14T04:58:39.410Z,5.32
2023-02-14T04:59:43.799Z,5.45
2023-02-14T05:00:51.006Z,4.75
2023-02-14T05:01:55.177Z,4.60
2023-02-14T05:02:59.208Z,5.03
2023-02-14T05:04:03.411Z,4.47
2023-02-14T05:05:11.811Z,5.00
2023-02-14T05:06:15.864Z,5.13
2023-02-14T05:07:19.665Z,5.35
2023-02-14T05:08:23.557Z,4.63
2023-02-14T05:09:27.508Z,4.90
2023-02-14T05:10:31.220Z,5.22
2023-02-14T05:11:34.867Z,4.47
2023-02-14T05:12:38.464Z,5.35
2023-02-14T05:13:42.190Z,4.90
2023-02-14T05:14:46.184Z,5.53
2023-02-14T05:15:49.978Z,5.00
2023-02-14T05:16:53.785Z,5.18
2023-02-14T05:18:01.773Z,4.80
2023-02-14T05:19:06.410Z,5.32
2023-02-14T05:20:11.554Z,4.95
2023-02-14T05:21:15.754Z,5.50
2023-02-14T05:22:20.006Z,7.38
2023-02-14T05:23:24.450Z,4.03
2023-02-14T05:24:28.400Z,5.18
2023-02-14T05:25:32.639Z,4.30
2023-02-14T05:26:36.613Z,5.60
2023-02-14T05:27:40.443Z,4.80
2023-02-14T05:28:44.561Z,4.97
2023-02-14T05:29:48.604Z,5.90
2023-02-14T05:30:52.885Z,6.18
2023-02-14T05:31:56.847Z,5.72
2023-02-14T05:33:01.473Z,4.80
2023-02-14T05:34:13.006Z,5.70
2023-02-14T05:35:16.933Z,6.25
2023-02-14T05:36:21.213Z,4.88
2023-02-14T05:37:24.943Z,6.18
2023-02-14T05:38:30.304Z,6.72
2023-02-14T05:39:34.134Z,5.30
2023-02-14T05:40:37.751Z,5.35
2023-02-14T05:41:41.833Z,5.43
2023-02-14T05:42:46.053Z,5.22
2023-02-14T05:43:49.935Z,5.32
2023-02-14T05:44:53.943Z,4.80
2023-02-14T05:45:58.536Z,6.97
2023-02-14T05:47:02.513Z,6.80
2023-02-14T05:48:09.138Z,6.22
2023-02-14T05:49:13.440Z,4.05
2023-02-14T05:50:19.516Z,5.45
2023-02-14T05:51:23.163Z,6.80
2023-02-14T05:52:27.600Z,6.13
2023-02-14T05:53:31.495Z,4.90
2023-02-14T05:54:35.477Z,5.95
2023-02-14T05:55:39.427Z,6.22
2023-02-14T05:56:43.161Z,5.53
2023-02-14T05:57:47.631Z,5.18
2023-02-14T05:58:51.542Z,5.75
2023-02-14T05:59:58.470Z,4.75
2023-02-14T06:01:03.078Z,5.20
2023-02-14T06:02:10.407Z,5.13
2023-02-14T06:03:14.783Z,5.72
2023-02-14T06:04:18.426Z,5.97
2023-02-14T06:05:22.787Z,6.15
2023-02-14T06:06:26.536Z,6.63
2023-02-14T06:07:30.630Z,5.95
2023-02-14T06:08:34.501Z,4.43
2023-02-14T06:09:38.480Z,5.03
2023-02-14T06:10:42.447Z,4.63
2023-02-14T06:11:46.547Z,5.32
2023-02-14T06:12:53.522Z,4.28
2023-02-14T06:13:57.301Z,4.97
2023-02-14T06:15:00.880Z,4.43
2023-02-14T06:16:08.548Z,6.00
2023-02-14T06:17:12.674Z,6.20
2023-02-14T06:18:16.667Z,6.85
2023-02-14T06:19:20.979Z,5.63
2023-02-14T06:20:25.666Z,6.85
2023-02-14T06:21:30.242Z,5.55
2023-02-14T06:22:34.106Z,5.93
2023-02-14T06:23:37.854Z,5.90
2023-02-14T06:24:41.655Z,6.20
2023-02-14T06:25:45.561Z,5.20
2023-02-14T06:26:49.786Z,5.63
2023-02-14T06:27:57.924Z,6.55
2023-02-14T06:29:03.054Z,5.30
2023-02-14T06:30:18.918Z,5.43
2023-02-14T06:31:23.446Z,5.85
2023-02-14T06:32:27.724Z,5.22
2023-02-14T06:33:32.683Z,6.15
2023-02-14T06:34:36.786Z,5.90
2023-02-14T06:35:41.029Z,5.25
2023-02-14T06:36:45.319Z,5.57
2023-02-14T06:37:49.846Z,5.43
2023-02-14T06:38:53.774Z,6.15
2023-02-14T06:39:57.787Z,6.35
2023-02-14T06:41:12.766Z,5.45
2023-02-14T06:42:17.449Z,4.68
2023-02-14T06:43:21.878Z,7.20
2023-02-14T06:44:25.954Z,5.72
2023-02-14T06:45:29.868Z,5.40
2023-02-14T06:46:33.472Z,5.40
2023-02-14T06:47:38.020Z,6.55
2023-02-14T06:48:42.270Z,5.03
2023-02-14T06:49:46.113Z,6.00
2023-02-14T06:50:50.162Z,5.57
2023-02-14T06:51:54.585Z,6.22
2023-02-14T06:52:58.306Z,5.03
2023-02-14T06:54:02.533Z,5.95
2023-02-14T06:55:12.009Z,6.03
2023-02-14T06:56:16.201Z,4.53
2023-02-14T06:57:20.112Z,5.50
2023-02-14T06:58:24.327Z,5.25
2023-02-14T06:59:28.456Z,5.43
2023-02-14T07:00:32.682Z,5.88
2023-02-14T07:01:37.056Z,5.90
2023-02-14T07:02:41.130Z,7.38
2023-02-14T07:03:44.843Z,6.82
2023-02-14T07:04:48.727Z,6.53
2023-02-14T07:05:53.687Z,4.82
2023-02-14T07:06:58.522Z,6.15
2023-02-14T07:08:02.708Z,7.90
2023-02-14T07:09:17.861Z,7.30
2023-02-14T07:10:21.437Z,5.18
2023-02-14T07:11:25.134Z,6.10
2023-02-14T07:12:28.895Z,5.75
2023-02-14T07:13:32.513Z,6.90
2023-02-14T07:14:36.189Z,5.40
2023-02-14T07:15:40.104Z,5.28
2023-02-14T07:16:44.027Z,6.50
2023-02-14T07:17:48.332Z,5.30
2023-02-14T07:18:52.167Z,4.68
2023-02-14T07:19:55.885Z,5.75
2023-02-14T07:20:59.872Z,5.63
2023-02-14T07:22:03.684Z,7.53
2023-02-14T07:23:11.591Z,5.20
2023-02-14T07:24:16.036Z,5.70
2023-02-14T07:25:20.011Z,5.53
2023-02-14T07:26:24.443Z,6.65
2023-02-14T07:27:28.312Z,6.32
2023-02-14T07:28:34.116Z,5.90
2023-02-14T07:29:38.291Z,5.30
2023-02-14T07:30:42.073Z,6.18
2023-02-14T07:31:46.541Z,5.13
2023-02-14T07:32:50.649Z,7.00
2023-02-14T07:33:54.886Z,5.72
2023-02-14T07:34:58.565Z,6.60
2023-02-14T07:36:09.225Z,7.20
2023-02-14T07:37:13.442Z,5.88
2023-02-14T07:38:17.275Z,5.30
2023-02-14T07:39:21.580Z,7.15
2023-02-14T07:40:25.389Z,5.70
2023-02-14T07:41:29.050Z,5.85
2023-02-14T07:42:33.214Z,5.22
2023-02-14T07:43:37.166Z,5.05
2023-02-14T07:44:40.875Z,5.45
2023-02-14T07:45:44.595Z,6.05
2023-02-14T07:46:48.703Z,5.10
2023-02-14T07:47:55.304Z,7.55
2023-02-14T07:48:59.134Z,5.22
2023-02-14T07:50:05.352Z,4.90
2023-02-14T07:51:12.144Z,5.18
2023-02-14T07:52:16.185Z,5.40
2023-02-14T07:53:20.125Z,4.85
2023-02-14T07:54:23.891Z,6.28
2023-02-14T07:55:28.131Z,4.85
2023-02-14T07:56:34.878Z,5.30
2023-02-14T07:57:38.627Z,5.85
2023-02-14T07:58:43.207Z,5.13
2023-02-14T07:59:47.220Z,5.47
2023-02-14T08:00:51.521Z,6.38
2023-02-14T08:01:55.376Z,5.88
2023-02-14T08:02:59.105Z,6.03
2023-02-14T08:04:02.867Z,5.65
2023-02-14T08:05:16.089Z,7.47
2023-02-14T08:06:20.903Z,6.28
2023-02-14T08:07:24.682Z,5.93
2023-02-14T08:08:31.475Z,6.13
2023-02-14T08:09:36.277Z,5.10
2023-02-14T08:10:40.688Z,5.93
2023-02-14T08:12:03.260Z,7.38
2023-02-14T08:13:12.162Z,5.68
2023-02-14T08:14:16.301Z,5.20
2023-02-14T08:15:38.874Z,5.20
2023-02-14T08:16:42.747Z,6.07
2023-02-14T08:17:46.997Z,6.13
2023-02-14T08:18:50.873Z,6.68
2023-02-14T08:19:54.669Z,5.55
2023-02-14T08:20:58.671Z,4.78
2023-02-14T08:22:04.356Z,5.47
2023-02-14T08:23:12.188Z,5.40
2023-02-14T08:24:16.303Z,5.13
2023-02-14T08:25:21.603Z,5.07
2023-02-14T08:26:25.607Z,5.10
2023-02-14T08:27:29.667Z,4.80
2023-02-14T08:28:33.844Z,4.40
2023-02-14T08:29:37.721Z,5.18
2023-02-14T08:30:43.457Z,4.85
2023-02-14T08:31:48.893Z,4.32
2023-02-14T08:32:53.837Z,5.30
2023-02-14T08:33:57.989Z,6.20
2023-02-14T08:35:01.890Z,4.35
2023-02-14T08:36:06.243Z,5.72
2023-02-14T08:37:11.935Z,5.85
2023-02-14T08:38:16.105Z,4.93
2023-02-14T08:39:24.420Z,4.63
2023-02-14T08:40:28.785Z,6.15
2023-02-14T08:41:37.078Z,5.60
2023-02-14T08:42:41.017Z,5.95
2023-02-14T08:43:46.429Z,5.00
2023-02-14T08:44:50.409Z,5.30
2023-02-14T08:45:55.112Z,6.25
2023-02-14T08:46:59.067Z,4.30
2023-02-14T08:48:14.325Z,3.80
2023-02-14T08:49:18.545Z,3.80
2023-02-14T08:50:22.967Z,4.30
2023-02-14T08:51:29.532Z,4.68
2023-02-14T08:52:36.031Z,7.10
2023-02-14T08:53:40.907Z,5.22
2023-02-14T08:54:46.969Z,5.95
2023-02-14T08:55:51.027Z,5.13
2023-02-14T08:56:54.709Z,5.18
2023-02-14T08:58:00.654Z,5.13
2023-02-14T08:59:07.098Z,7.00
2023-02-14T09:00:12.060Z,6.60
2023-02-14T09:01:18.258Z,6.85
2023-02-14T09:02:22.424Z,4.55
2023-02-14T09:03:26.368Z,5.85
2023-02-14T09:04:30.678Z,7.10
2023-02-14T09:05:35.321Z,4.45
2023-02-14T09:06:40.256Z,5.40
2023-02-14T09:07:44.013Z,5.18
2023-02-14T09:08:48.309Z,3.85
2023-02-14T09:09:52.385Z,6.97
2023-02-14T09:10:56.013Z,3.80
2023-02-14T09:12:04.567Z,6.60
2023-02-14T09:13:11.502Z,5.00
2023-02-14T09:14:21.222Z,5.55
2023-02-14T09:15:25.019Z,6.25
2023-02-14T09:16:28.860Z,6.38
2023-02-14T09:17:32.884Z,5.72
2023-02-14T09:18:37.603Z,5.78
2023-02-14T09:19:49.495Z,5.93
2023-02-14T09:20:53.863Z,6.18
2023-02-14T09:21:57.984Z,5.60
2023-02-14T09:23:01.945Z,5.10
2023-02-14T09:24:08.413Z,4.80
2023-02-14T09:25:12.914Z,4.03
2023-02-14T09:26:18.610Z,4.60
2023-02-14T09:27:22.337Z,5.45
2023-02-14T09:28:26.532Z,5.60
2023-02-14T09:29:32.387Z,4.32
2023-02-14T09:30:36.370Z,6.97
2023-02-14T09:31:40.430Z,5.03
2023-02-14T09:32:44.582Z,5.03
2023-02-14T09:33:50.305Z,4.65
2023-02-14T09:35:13.487Z,4.95
2023-02-14T09:36:20.344Z,5.00
2023-02-14T09:37:43.183Z,4.45
2023-02-14T09:38:47.816Z,4.93
2023-02-14T09:39:51.960Z,4.88
2023-02-14T09:40:56.445Z,4.68
2023-02-14T09:42:34.129Z,5.63
2023-02-14T09:43:53.321Z,3.65
2023-02-14T09:45:26.676Z,4.32
2023-02-14T09:46:40.381Z,5.35
2023-02-14T09:47:51.230Z,4.82
2023-02-14T09:48:59.957Z,4.70
2023-02-14T09:50:32.366Z,3.92
2023-02-14T09:51:45.849Z,4.05
2023-02-14T09:52:59.412Z,3.35
2023-02-14T09:54:28.994Z,5.45
2023-02-14T09:56:13.828Z,3.70
2023-02-14T09:57:57.892Z,5.05
2023-02-14T09:59:21.967Z,3.60
2023-02-14T10:00:34.244Z,4.68
2023-02-14T10:01:57.481Z,3.95
2023-02-14T10:03:20.816Z,4.13
2023-02-14T10:05:03.398Z,4.20
2023-02-14T10:06:23.455Z,4.10
2023-02-14T10:08:26.378Z,3.17
2023-02-14T10:10:01.805Z,3.42
2023-02-14T10:11:18.162Z,4.07
2023-02-14T10:13:02.068Z,4.05
2023-02-14T10:14:16.662Z,2.72
2023-02-14T10:15:28.285Z,3.33
2023-02-14T10:16:46.886Z,4.25
2023-02-14T10:18:06.130Z,3.97
2023-02-14T10:19:31.988Z,3.10
2023-02-14T10:20:53.310Z,2.72
2023-02-14T10:22:16.643Z,2.28
2023-02-14T10:23:45.734Z,2.80
2023-02-14T10:25:11.997Z,2.55
2023-02-14T10:26:38.275Z,2.63
2023-02-14T10:27:51.441Z,3.08
2023-02-14T10:28:56.577Z,2.35
2023-02-14T10:30:27.764Z,3.28
2023-02-14T10:31:56.766Z,2.63
2023-02-14T10:33:22.877Z,2.25
2023-02-14T10:34:49.741Z,3.55
2023-02-14T10:36:10.082Z,1.67
2023-02-14T10:37:43.921Z,2.50
2023-02-14T10:39:09.706Z,2.58
2023-02-14T10:40:41.155Z,3.50
2023-02-14T10:42:14.575Z,2.75
2023-02-14T10:43:38.516Z,2.60
2023-02-14T10:45:23.963Z,2.28
2023-02-14T10:47:07.717Z,2.88
2023-02-14T10:48:37.151Z,3.05
2023-02-14T10:50:21.815Z,2.95
2023-02-14T10:51:36.869Z,3.08
2023-02-14T10:53:23.565Z,2.13
2023-02-14T10:54:41.702Z,2.92
2023-02-14T10:55:59.405Z,2.47
2023-02-14T10:57:19.042Z,2.30
2023-02-14T10:58:28.537Z,2.97
2023-02-14T10:59:48.819Z,3.80
2023-02-14T11:01:18.481Z,3.35
2023-02-14T11:02:32.187Z,1.50
2023-02-14T11:04:03.714Z,2.10
2023-02-14T11:06:01.726Z,2.00
2023-02-14T11:07:16.772Z,3.30
2023-02-14T11:08:34.174Z,2.58
2023-02-14T11:09:38.060Z,2.53
2023-02-14T11:10:42.919Z,2.45
2023-02-14T11:11:59.186Z,3.03
2023-02-14T11:13:02.789Z,2.17
2023-02-14T11:14:25.153Z,3.03
2023-02-14T11:15:39.254Z,3.17
2023-02-14T11:16:43.062Z,2.60
2023-02-14T11:18:14.912Z,2.97
2023-02-14T11:19:27.370Z,2.38
2023-02-14T11:20:31.582Z,2.17
2023-02-14T11:21:45.088Z,1.70
2023-02-14T11:22:50.193Z,1.83
2023-02-14T11:23:54.216Z,2.45
2023-02-14T11:25:35.721Z,2.72
2023-02-14T11:26:45.612Z,2.03
2023-02-14T11:28:08.741Z,2.97
2023-02-14T11:29:22.104Z,2.28
2023-02-14T11:30:37.224Z,1.92
2023-02-14T11:31:43.338Z,2.22
2023-02-14T11:32:56.558Z,2.67
2023-02-14T11:34:05.011Z,3.20
2023-02-14T11:35:29.075Z,2.33
2023-02-14T11:36:42.043Z,2.53
2023-02-14T11:37:55.637Z,3.13
2023-02-14T11:39:32.114Z,2.50
2023-02-14T11:40:42.636Z,2.40
2023-02-14T11:41:59.943Z,2.55
2023-02-14T11:43:30.185Z,2.35
2023-02-14T11:44:37.380Z,3.05
2023-02-14T11:45:46.184Z,2.58
2023-02-14T11:47:02.976Z,2.33
2023-02-14T11:48:37.315Z,2.65
2023-02-14T11:50:23.527Z,2.10
2023-02-14T11:51:45.878Z,2.53
2023-02-14T11:52:56.885Z,2.30
2023-02-14T11:54:08.727Z,2.40
2023-02-14T11:55:33.645Z,2.88
2023-02-14T11:57:01.605Z,2.28
2023-02-14T11:58:09.246Z,2.70
2023-02-14T11:59:27.356Z,2.20
2023-02-14T12:00:32.848Z,3.03
2023-02-14T12:01:41.517Z,2.72
2023-02-14T12:02:50.944Z,2.40
2023-02-14T12:04:03.567Z,1.95
2023-02-14T12:05:31.099Z,2.33
2023-02-14T12:06:36.768Z,2.83
2023-02-14T12:07:46.356Z,2.03
2023-02-14T12:08:50.251Z,2.38
2023-02-14T12:10:18.251Z,2.22
2023-02-14T12:11:24.640Z,2.55
2023-02-14T12:12:29.208Z,2.13
2023-02-14T12:13:33.573Z,2.30
2023-02-14T12:14:39.813Z,1.75
2023-02-14T12:15:45.604Z,3.35
2023-02-14T12:17:34.378Z,2.88
2023-02-14T12:18:51.517Z,2.75
2023-02-14T12:20:19.690Z,2.13
2023-02-14T12:21:50.083Z,2.72
2023-02-14T12:23:14.484Z,2.33
2023-02-14T12:24:38.352Z,1.90
2023-02-14T12:26:11.746Z,2.17
2023-02-14T12:27:27.353Z,2.10
2023-02-14T12:28:50.309Z,2.95
2023-02-14T12:30:23.784Z,2.65
2023-02-14T12:31:28.547Z,2.97
2023-02-14T12:32:33.791Z,2.83
2023-02-14T12:33:40.249Z,3.15
2023-02-14T12:34:44.628Z,2.65
2023-02-14T12:36:16.524Z,2.40
2023-02-14T12:37:36.430Z,2.05
2023-02-14T12:39:01.335Z,2.20
2023-02-14T12:40:50.184Z,2.15
2023-02-14T12:42:06.120Z,2.33
2023-02-14T12:43:19.892Z,2.03
2023-02-14T12:44:51.239Z,3.60
2023-02-14T12:45:56.191Z,3.53
2023-02-14T12:47:34.539Z,2.80
2023-02-14T12:49:20.651Z,3.35
2023-02-14T12:50:33.970Z,2.88
2023-02-14T12:52:14.810Z,2.80
2023-02-14T12:53:28.433Z,2.00
2023-02-14T12:54:50.656Z,2.42
2023-02-14T12:56:26.836Z,2.55
2023-02-14T12:57:42.606Z,2.00
2023-02-14T12:59:00.334Z,2.55
2023-02-14T13:00:56.643Z,3.72
2023-02-14T13:02:25.556Z,2.60
2023-02-14T13:03:59.920Z,2.95
2023-02-14T13:05:31.144Z,3.00
2023-02-14T13:06:48.272Z,4.03
2023-02-14T13:08:44.997Z,2.75
2023-02-14T13:10:47.032Z,2.90
2023-02-14T13:12:37.302Z,3.35
2023-02-14T13:14:05.256Z,2.97
2023-02-14T13:15:51.644Z,3.08
2023-02-14T13:17:16.946Z,2.50
2023-02-14T13:18:49.832Z,2.45
2023-02-14T13:20:05.615Z,2.40
2023-02-14T13:21:15.448Z,2.58
2023-02-14T13:22:24.178Z,3.10
2023-02-14T13:23:55.283Z,2.88
2023-02-14T13:25:10.494Z,2.47
2023-02-14T13:26:31.263Z,3.30
2023-02-14T13:27:40.429Z,2.70
2023-02-14T13:29:02.055Z,2.97
2023-02-14T13:30:35.204Z,4.13
2023-02-14T13:31:48.806Z,3.55
2023-02-14T13:32:59.212Z,3.40
2023-02-14T13:34:15.991Z,2.53
2023-02-14T13:35:24.904Z,4.13
2023-02-14T13:36:37.726Z,3.03
2023-02-14T13:37:55.323Z,2.55
2023-02-14T13:39:04.200Z,3.25
2023-02-14T13:40:21.759Z,2.97
2023-02-14T13:41:28.434Z,2.53
2023-02-14T13:42:57.237Z,2.97
2023-02-14T13:44:03.795Z,3.75
2023-02-14T13:45:35.234Z,3.75
2023-02-14T13:46:39.157Z,3.50
2023-02-14T13:47:42.916Z,2.92
2023-02-14T13:49:20.242Z,3.42
2023-02-14T13:50:24.602Z,3.67
2023-02-14T13:51:57.081Z,3.53
2023-02-14T13:53:01.466Z,3.42
2023-02-14T13:54:49.136Z,4.75
2023-02-14T13:55:55.994Z,3.65
2023-02-14T13:57:23.640Z,3.75
2023-02-14T13:58:27.797Z,4.38
2023-02-14T13:59:36.395Z,4.53
2023-02-14T14:00:47.103Z,3.33
2023-02-14T14:01:51.496Z,2.65
2023-02-14T14:02:57.354Z,4.82
2023-02-14T14:04:07.393Z,3.17
2023-02-14T14:05:30.063Z,4.20
2023-02-14T14:07:01.424Z,5.10
2023-02-14T14:08:25.574Z,3.42
2023-02-14T14:09:44.104Z,3.85
2023-02-14T14:10:59.616Z,4.00
2023-02-14T14:12:27.610Z,3.83
2023-02-14T14:13:43.095Z,3.83
2023-02-14T14:15:15.497Z,4.45
2023-02-14T14:16:28.442Z,3.28
2023-02-14T14:18:14.216Z,5.05
2023-02-14T14:19:18.446Z,4.85
2023-02-14T14:20:23.701Z,4.07
2023-02-14T14:21:46.412Z,4.20
2023-02-14T14:22:54.254Z,2.97
2023-02-14T14:24:32.215Z,3.90
2023-02-14T14:25:43.694Z,4.10
2023-02-14T14:27:16.383Z,4.00
2023-02-14T14:28:25.638Z,3.90
2023-02-14T14:29:45.110Z,4.20
2023-02-14T14:30:49.732Z,4.22
2023-02-14T14:31:56.313Z,4.03
2023-02-14T14:33:25.988Z,3.72
2023-02-14T14:34:29.839Z,4.00
2023-02-14T14:35:33.602Z,3.80
2023-02-14T14:36:49.956Z,3.35
2023-02-14T14:38:02.116Z,3.85
2023-02-14T14:39:05.994Z,4.63
2023-02-14T14:40:28.910Z,4.25
2023-02-14T14:41:33.303Z,3.55
2023-02-14T14:42:41.155Z,4.07
2023-02-14T14:43:48.411Z,4.75
2023-02-14T14:45:01.991Z,3.63
2023-02-14T14:46:13.479Z,3.70
2023-02-14T14:47:24.578Z,3.60
2023-02-14T14:48:53.544Z,4.22
2023-02-14T14:50:17.010Z,3.80
2023-02-14T14:51:33.688Z,3.72
2023-02-14T14:52:47.306Z,4.38
2023-02-14T14:53:54.801Z,4.18
2023-02-14T14:55:01.109Z,3.60
2023-02-14T14:56:05.512Z,3.60
2023-02-14T14:57:18.431Z,3.58
2023-02-14T14:58:41.404Z,3.53
2023-02-14T14:59:45.875Z,3.65
2023-02-14T15:00:56.373Z,3.50
2023-02-14T15:02:00.282Z,2.92
2023-02-14T15:03:07.629Z,5.82
2023-02-14T15:04:27.306Z,4.72
2023-02-14T15:05:47.112Z,4.53
2023-02-14T15:06:52.089Z,4.22
2023-02-14T15:07:57.992Z,4.75
2023-02-14T15:09:35.097Z,4.25
2023-02-14T15:10:39.789Z,3.80
2023-02-14T15:12:05.868Z,4.45
2023-02-14T15:13:34.149Z,3.97
2023-02-14T15:14:44.842Z,3.97
2023-02-14T15:15:51.815Z,4.72
2023-02-14T15:17:18.667Z,4.45
2023-02-14T15:18:23.328Z,4.38
2023-02-14T15:19:44.277Z,2.88
2023-02-14T15:20:53.227Z,4.05
2023-02-14T15:21:58.356Z,4.40
2023-02-14T15:23:03.205Z,3.10
2023-02-14T15:24:18.229Z,4.53
2023-02-14T15:25:38.080Z,3.83
2023-02-14T15:26:45.810Z,4.20
2023-02-14T15:27:51.962Z,4.93
2023-02-14T15:29:05.459Z,3.60
2023-02-14T15:30:31.010Z,3.33
2023-02-14T15:31:42.197Z,3.58
2023-02-14T15:32:50.748Z,3.28
2023-02-14T15:33:54.597Z,3.67
2023-02-14T15:35:02.727Z,2.78
2023-02-14T15:36:29.323Z,4.18
2023-02-14T15:37:34.882Z,3.42
2023-02-14T15:38:42.299Z,3.42
2023-02-14T15:39:52.748Z,4.88
2023-02-14T15:40:59.705Z,4.43
2023-02-14T15:42:09.304Z,5.45
2023-02-14T15:43:22.373Z,3.20
2023-02-14T15:44:30.017Z,3.17
2023-02-14T15:45:57.336Z,3.85
2023-02-14T15:47:07.622Z,5.00
2023-02-14T15:48:33.578Z,3.67
2023-02-14T15:49:41.524Z,3.92
2023-02-14T15:50:59.977Z,3.67
2023-02-14T15:52:12.333Z,3.88
2023-02-14T15:53:45.086Z,3.28
2023-02-14T15:54:49.053Z,3.33
2023-02-14T15:56:34.181Z,3.78
2023-02-14T15:57:38.398Z,3.65
2023-02-14T15:58:45.403Z,4.03
2023-02-14T15:59:57.316Z,4.13
2023-02-14T16:01:04.389Z,4.10
2023-02-14T16:02:39.082Z,4.28
2023-02-14T16:03:57.598Z,2.92
2023-02-14T16:05:25.054Z,5.03
2023-02-14T16:06:49.134Z,4.00
2023-02-14T16:08:35.350Z,3.75
2023-02-14T16:09:39.208Z,4.03